sensor_id;sensor_type;location;lat;lon;timestamp;pressure;altitude;pressure_sealevel;temperature;humidity
16690;BME280;8458;52.220;9.884;2022-07-04T00:00:59;101008.06;;;18.85;69.61
16690;BME280;8458;52.220;9.884;2022-07-04T00:03:26;101002.84;;;19.06;69.91
16690;BME280;8458;52.220;9.884;2022-07-04T00:05:52;101012.50;;;19.13;69.09
16690;BME280;8458;52.220;9.884;2022-07-04T00:08:19;101001.25;;;19.13;69.50
16690;BME280;8458;52.220;9.884;2022-07-04T00:10:47;100991.28;;;19.07;69.80
16690;BME280;8458;52.220;9.884;2022-07-04T00:13:14;100996.59;;;19.09;70.04
16690;BME280;8458;52.220;9.884;2022-07-04T00:15:40;100999.47;;;19.17;69.92
16690;BME280;8458;52.220;9.884;2022-07-04T00:18:07;100995.59;;;19.27;69.32
16690;BME280;8458;52.220;9.884;2022-07-04T00:20:33;101000.63;;;19.16;69.29
16690;BME280;8458;52.220;9.884;2022-07-04T00:23:00;100998.84;;;19.21;69.55
16690;BME280;8458;52.220;9.884;2022-07-04T00:25:26;100999.66;;;19.35;69.47
16690;BME280;8458;52.220;9.884;2022-07-04T00:27:54;101000.63;;;19.16;69.52
16690;BME280;8458;52.220;9.884;2022-07-04T00:30:21;101012.09;;;19.06;69.69
16690;BME280;8458;52.220;9.884;2022-07-04T00:32:47;101010.03;;;18.98;69.63
16690;BME280;8458;52.220;9.884;2022-07-04T00:35:14;101008.16;;;18.93;69.21
16690;BME280;8458;52.220;9.884;2022-07-04T00:37:40;101006.16;;;18.94;69.64
16690;BME280;8458;52.220;9.884;2022-07-04T00:40:08;101000.44;;;18.99;69.51
16690;BME280;8458;52.220;9.884;2022-07-04T00:42:35;101000.03;;;18.92;69.43
16690;BME280;8458;52.220;9.884;2022-07-04T00:45:03;101000.03;;;18.92;69.80
16690;BME280;8458;52.220;9.884;2022-07-04T00:47:30;100998.53;;;18.67;70.20
16690;BME280;8458;52.220;9.884;2022-07-04T00:49:57;101010.09;;;18.65;70.63
16690;BME280;8458;52.220;9.884;2022-07-04T00:52:23;101006.66;;;18.82;70.19
16690;BME280;8458;52.220;9.884;2022-07-04T00:54:50;101005.25;;;18.85;70.29
16690;BME280;8458;52.220;9.884;2022-07-04T00:57:17;101009.09;;;19.03;69.64
16690;BME280;8458;52.220;9.884;2022-07-04T00:59:43;101010.00;;;19.12;69.51
16690;BME280;8458;52.220;9.884;2022-07-04T01:02:11;101011.56;;;19.18;69.09
16690;BME280;8458;52.220;9.884;2022-07-04T01:04:37;101016.28;;;19.31;68.69
16690;BME280;8458;52.220;9.884;2022-07-04T01:07:05;101000.28;;;19.32;68.63
16690;BME280;8458;52.220;9.884;2022-07-04T01:09:32;101012.53;;;19.36;68.64
16690;BME280;8458;52.220;9.884;2022-07-04T01:11:59;101004.09;;;19.36;68.75
16690;BME280;8458;52.220;9.884;2022-07-04T01:14:26;101008.47;;;19.42;68.92
16690;BME280;8458;52.220;9.884;2022-07-04T01:16:52;101005.97;;;19.41;69.12
16690;BME280;8458;52.220;9.884;2022-07-04T01:19:20;100999.94;;;19.47;68.87
16690;BME280;8458;52.220;9.884;2022-07-04T01:21:48;101003.69;;;19.43;68.49
16690;BME280;8458;52.220;9.884;2022-07-04T01:24:14;101011.81;;;19.44;68.57
16690;BME280;8458;52.220;9.884;2022-07-04T01:26:41;101001.38;;;19.45;68.67
16690;BME280;8458;52.220;9.884;2022-07-04T01:29:07;101011.50;;;19.46;68.50
16690;BME280;8458;52.220;9.884;2022-07-04T01:31:34;101006.69;;;19.46;68.54
16690;BME280;8458;52.220;9.884;2022-07-04T01:34:01;101003.38;;;19.44;68.42
16690;BME280;8458;52.220;9.884;2022-07-04T01:36:27;101000.88;;;19.43;68.48
16690;BME280;8458;52.220;9.884;2022-07-04T01:38:55;101002.84;;;19.42;69.09
16690;BME280;8458;52.220;9.884;2022-07-04T01:41:24;101006.81;;;19.41;68.98
16690;BME280;8458;52.220;9.884;2022-07-04T01:43:50;101016.72;;;19.39;68.90
16690;BME280;8458;52.220;9.884;2022-07-04T01:46:17;101010.25;;;19.38;68.69
16690;BME280;8458;52.220;9.884;2022-07-04T01:48:43;101017.66;;;19.34;69.00
16690;BME280;8458;52.220;9.884;2022-07-04T01:51:10;101007.88;;;19.31;68.61
16690;BME280;8458;52.220;9.884;2022-07-04T01:53:36;101008.41;;;19.33;68.71
16690;BME280;8458;52.220;9.884;2022-07-04T01:56:05;101008.72;;;19.32;68.90
16690;BME280;8458;52.220;9.884;2022-07-04T01:58:31;101021.22;;;19.26;68.60
16690;BME280;8458;52.220;9.884;2022-07-04T02:00:58;101021.22;;;19.26;68.67
16690;BME280;8458;52.220;9.884;2022-07-04T02:03:42;101012.88;;;19.21;68.40
16690;BME280;8458;52.220;9.884;2022-07-04T02:06:10;101012.38;;;19.19;68.76
16690;BME280;8458;52.220;9.884;2022-07-04T02:08:37;101004.56;;;19.15;69.37
16690;BME280;8458;52.220;9.884;2022-07-04T02:11:22;100996.78;;;19.12;69.63
16690;BME280;8458;52.220;9.884;2022-07-04T02:13:49;100998.53;;;19.08;69.32
16690;BME280;8458;52.220;9.884;2022-07-04T02:16:14;101004.78;;;19.05;69.29
16690;BME280;8458;52.220;9.884;2022-07-04T02:18:41;101005.41;;;19.02;69.41
16690;BME280;8458;52.220;9.884;2022-07-04T02:21:07;101009.91;;;19.03;69.17
16690;BME280;8458;52.220;9.884;2022-07-04T02:23:34;101011.16;;;18.97;69.23
16690;BME280;8458;52.220;9.884;2022-07-04T02:26:00;101007.84;;;18.95;69.42
16690;BME280;8458;52.220;9.884;2022-07-04T02:28:28;101018.03;;;18.91;69.25
16690;BME280;8458;52.220;9.884;2022-07-04T02:30:55;101017.56;;;18.84;69.58
16690;BME280;8458;52.220;9.884;2022-07-04T02:33:21;101015.41;;;18.80;69.48
16690;BME280;8458;52.220;9.884;2022-07-04T02:35:48;101017.28;;;18.71;69.35
16690;BME280;8458;52.220;9.884;2022-07-04T02:38:14;101012.59;;;18.67;69.69
16690;BME280;8458;52.220;9.884;2022-07-04T02:40:41;101018.50;;;18.65;70.10
16690;BME280;8458;52.220;9.884;2022-07-04T02:43:07;101015.19;;;18.63;69.89
16690;BME280;8458;52.220;9.884;2022-07-04T02:45:35;101022.81;;;18.62;69.87
16690;BME280;8458;52.220;9.884;2022-07-04T02:48:02;101024.75;;;18.62;70.11
16690;BME280;8458;52.220;9.884;2022-07-04T02:50:28;101034.97;;;18.58;70.16
16690;BME280;8458;52.220;9.884;2022-07-04T02:52:55;101029.53;;;18.48;69.95
16690;BME280;8458;52.220;9.884;2022-07-04T02:55:22;101037.13;;;18.47;70.25
16690;BME280;8458;52.220;9.884;2022-07-04T02:57:48;101038.16;;;18.37;70.51
16690;BME280;8458;52.220;9.884;2022-07-04T03:00:15;101038.25;;;18.32;70.53
16690;BME280;8458;52.220;9.884;2022-07-04T03:02:42;101038.44;;;18.22;71.03
16690;BME280;8458;52.220;9.884;2022-07-04T03:05:09;101044.69;;;18.19;71.15
16690;BME280;8458;52.220;9.884;2022-07-04T03:07:35;101045.66;;;18.09;71.88
16690;BME280;8458;52.220;9.884;2022-07-04T03:10:02;101050.00;;;18.01;71.83
16690;BME280;8458;52.220;9.884;2022-07-04T03:12:29;101052.06;;;17.77;72.81
16690;BME280;8458;52.220;9.884;2022-07-04T03:14:56;101039.09;;;17.81;72.44
16690;BME280;8458;52.220;9.884;2022-07-04T03:17:24;101050.09;;;17.77;72.75
16690;BME280;8458;52.220;9.884;2022-07-04T03:19:52;101051.06;;;17.67;72.99
16690;BME280;8458;52.220;9.884;2022-07-04T03:22:19;101069.13;;;17.61;73.04
16690;BME280;8458;52.220;9.884;2022-07-04T03:24:45;101068.97;;;17.52;73.51
16690;BME280;8458;52.220;9.884;2022-07-04T03:27:12;101066.22;;;17.28;74.39
16690;BME280;8458;52.220;9.884;2022-07-04T03:29:38;101072.59;;;17.34;74.55
16690;BME280;8458;52.220;9.884;2022-07-04T03:32:06;101068.81;;;17.44;74.50
16690;BME280;8458;52.220;9.884;2022-07-04T03:34:32;101068.22;;;17.47;74.47
16690;BME280;8458;52.220;9.884;2022-07-04T03:37:00;101065.78;;;17.59;74.35
16690;BME280;8458;52.220;9.884;2022-07-04T03:39:27;101067.47;;;17.60;74.58
16690;BME280;8458;52.220;9.884;2022-07-04T03:41:53;101076.19;;;17.59;74.63
16690;BME280;8458;52.220;9.884;2022-07-04T03:44:20;101071.91;;;17.61;74.66
16690;BME280;8458;52.220;9.884;2022-07-04T03:46:46;101078.81;;;17.50;74.82
16690;BME280;8458;52.220;9.884;2022-07-04T03:49:13;101073.38;;;17.59;74.84
16690;BME280;8458;52.220;9.884;2022-07-04T03:51:40;101087.44;;;17.34;75.71
16690;BME280;8458;52.220;9.884;2022-07-04T03:54:08;101083.50;;;17.35;75.63
16690;BME280;8458;52.220;9.884;2022-07-04T03:56:34;101086.84;;;17.37;75.17
16690;BME280;8458;52.220;9.884;2022-07-04T03:59:01;101089.13;;;17.35;75.61
16690;BME280;8458;52.220;9.884;2022-07-04T04:01:27;101087.56;;;17.24;75.96
16690;BME280;8458;52.220;9.884;2022-07-04T04:03:55;101093.03;;;17.34;75.98
16690;BME280;8458;52.220;9.884;2022-07-04T04:06:40;101104.72;;;17.42;75.40
16690;BME280;8458;52.220;9.884;2022-07-04T04:09:08;101104.19;;;17.39;75.72
16690;BME280;8458;52.220;9.884;2022-07-04T04:11:38;101099.94;;;17.42;75.67
16690;BME280;8458;52.220;9.884;2022-07-04T04:14:05;101099.13;;;17.42;75.97
16690;BME280;8458;52.220;9.884;2022-07-04T04:16:31;101106.06;;;17.44;75.64
16690;BME280;8458;52.220;9.884;2022-07-04T04:18:58;101106.97;;;17.39;75.83
16690;BME280;8458;52.220;9.884;2022-07-04T04:21:24;101102.38;;;17.49;75.88
16690;BME280;8458;52.220;9.884;2022-07-04T04:23:51;101105.78;;;17.46;76.02
16690;BME280;8458;52.220;9.884;2022-07-04T04:26:19;101113.66;;;17.44;75.76
16690;BME280;8458;52.220;9.884;2022-07-04T04:28:45;101109.03;;;17.10;77.46
16690;BME280;8458;52.220;9.884;2022-07-04T04:31:12;101117.34;;;17.20;77.57
16690;BME280;8458;52.220;9.884;2022-07-04T04:33:39;101125.25;;;17.13;78.10
16690;BME280;8458;52.220;9.884;2022-07-04T04:36:06;101127.00;;;17.09;78.32
16690;BME280;8458;52.220;9.884;2022-07-04T04:38:33;101128.13;;;17.08;78.54
16690;BME280;8458;52.220;9.884;2022-07-04T04:40:59;101124.25;;;17.03;79.52
16690;BME280;8458;52.220;9.884;2022-07-04T04:43:27;101123.72;;;17.01;79.91
16690;BME280;8458;52.220;9.884;2022-07-04T04:45:54;101132.78;;;17.17;79.84
16690;BME280;8458;52.220;9.884;2022-07-04T04:48:21;101121.19;;;17.24;79.85
16690;BME280;8458;52.220;9.884;2022-07-04T04:50:47;101135.03;;;17.15;80.42
16690;BME280;8458;52.220;9.884;2022-07-04T04:53:14;101131.09;;;16.92;82.21
16690;BME280;8458;52.220;9.884;2022-07-04T04:55:40;101136.31;;;16.75;83.62
16690;BME280;8458;52.220;9.884;2022-07-04T04:58:07;101132.34;;;16.76;84.67
16690;BME280;8458;52.220;9.884;2022-07-04T05:00:35;101136.03;;;16.71;85.78
16690;BME280;8458;52.220;9.884;2022-07-04T05:03:01;101140.09;;;16.60;86.97
16690;BME280;8458;52.220;9.884;2022-07-04T05:05:28;101139.72;;;16.66;87.57
16690;BME280;8458;52.220;9.884;2022-07-04T05:07:54;101139.25;;;16.59;88.88
16690;BME280;8458;52.220;9.884;2022-07-04T05:10:21;101144.56;;;16.61;89.25
16690;BME280;8458;52.220;9.884;2022-07-04T05:12:47;101147.59;;;16.64;90.45
16690;BME280;8458;52.220;9.884;2022-07-04T05:15:14;101145.91;;;16.63;89.97
16690;BME280;8458;52.220;9.884;2022-07-04T05:17:42;101156.44;;;16.77;89.41
16690;BME280;8458;52.220;9.884;2022-07-04T05:20:09;101149.41;;;16.79;89.27
16690;BME280;8458;52.220;9.884;2022-07-04T05:22:35;101147.75;;;16.78;89.71
16690;BME280;8458;52.220;9.884;2022-07-04T05:25:03;101138.44;;;16.83;89.15
16690;BME280;8458;52.220;9.884;2022-07-04T05:27:29;101149.09;;;16.86;88.94
16690;BME280;8458;52.220;9.884;2022-07-04T05:29:56;101149.09;;;16.86;89.36
16690;BME280;8458;52.220;9.884;2022-07-04T05:32:23;101149.31;;;16.90;89.60
16690;BME280;8458;52.220;9.884;2022-07-04T05:34:51;101143.72;;;16.90;89.32
16690;BME280;8458;52.220;9.884;2022-07-04T05:37:18;101142.31;;;16.92;89.96
16690;BME280;8458;52.220;9.884;2022-07-04T05:39:44;101138.31;;;16.98;89.90
16690;BME280;8458;52.220;9.884;2022-07-04T05:42:11;101146.22;;;16.91;90.32
16690;BME280;8458;52.220;9.884;2022-07-04T05:44:37;101142.84;;;16.94;90.70
16690;BME280;8458;52.220;9.884;2022-07-04T05:47:04;101139.78;;;17.15;90.86
16690;BME280;8458;52.220;9.884;2022-07-04T05:49:30;101149.22;;;17.24;89.22
16690;BME280;8458;52.220;9.884;2022-07-04T05:51:58;101149.22;;;17.24;89.61
16690;BME280;8458;52.220;9.884;2022-07-04T05:54:25;101145.78;;;17.32;89.66
16690;BME280;8458;52.220;9.884;2022-07-04T05:56:51;101152.06;;;17.43;89.38
16690;BME280;8458;52.220;9.884;2022-07-04T05:59:18;101142.22;;;17.46;88.54
16690;BME280;8458;52.220;9.884;2022-07-04T06:01:44;101139.41;;;17.46;88.00
16690;BME280;8458;52.220;9.884;2022-07-04T06:04:11;101148.81;;;17.55;88.08
16690;BME280;8458;52.220;9.884;2022-07-04T06:06:37;101145.50;;;17.53;88.72
16690;BME280;8458;52.220;9.884;2022-07-04T06:09:05;101138.69;;;17.59;87.40
16690;BME280;8458;52.220;9.884;2022-07-04T06:11:32;101143.31;;;17.69;87.64
16690;BME280;8458;52.220;9.884;2022-07-04T06:13:59;101145.97;;;17.79;86.17
16690;BME280;8458;52.220;9.884;2022-07-04T06:16:26;101149.50;;;17.90;85.93
16690;BME280;8458;52.220;9.884;2022-07-04T06:18:53;101143.94;;;17.85;84.83
16690;BME280;8458;52.220;9.884;2022-07-04T06:21:20;101138.75;;;17.97;83.91
16690;BME280;8458;52.220;9.884;2022-07-04T06:23:46;101143.75;;;18.00;83.85
16690;BME280;8458;52.220;9.884;2022-07-04T06:26:14;101137.34;;;18.14;83.07
16690;BME280;8458;52.220;9.884;2022-07-04T06:28:41;101135.75;;;18.26;82.35
16690;BME280;8458;52.220;9.884;2022-07-04T06:31:07;101134.22;;;18.34;80.48
16690;BME280;8458;52.220;9.884;2022-07-04T06:33:34;101130.81;;;18.51;80.39
16690;BME280;8458;52.220;9.884;2022-07-04T06:36:21;101132.31;;;18.62;77.84
16690;BME280;8458;52.220;9.884;2022-07-04T06:38:46;101138.31;;;18.56;75.01
16690;BME280;8458;52.220;9.884;2022-07-04T06:41:14;101139.38;;;18.60;75.18
16690;BME280;8458;52.220;9.884;2022-07-04T06:43:41;101131.25;;;18.58;74.88
16690;BME280;8458;52.220;9.884;2022-07-04T06:46:07;101142.38;;;18.63;75.78
16690;BME280;8458;52.220;9.884;2022-07-04T06:48:34;101141.28;;;18.78;72.97
16690;BME280;8458;52.220;9.884;2022-07-04T06:51:01;101137.72;;;18.92;73.08
16690;BME280;8458;52.220;9.884;2022-07-04T06:53:28;101135.53;;;18.89;72.32
16690;BME280;8458;52.220;9.884;2022-07-04T06:55:54;101139.41;;;18.74;71.73
16690;BME280;8458;52.220;9.884;2022-07-04T06:58:22;101144.25;;;18.87;71.96
16690;BME280;8458;52.220;9.884;2022-07-04T07:00:48;101152.16;;;18.99;71.52
16690;BME280;8458;52.220;9.884;2022-07-04T07:03:15;101140.41;;;19.11;71.18
16690;BME280;8458;52.220;9.884;2022-07-04T07:05:42;101143.22;;;19.11;70.76
16690;BME280;8458;52.220;9.884;2022-07-04T07:08:08;101141.16;;;19.16;71.47
16690;BME280;8458;52.220;9.884;2022-07-04T07:10:35;101151.97;;;19.09;71.74
16690;BME280;8458;52.220;9.884;2022-07-04T07:13:02;101141.97;;;19.03;70.96
16690;BME280;8458;52.220;9.884;2022-07-04T07:15:30;101140.41;;;18.97;70.68
16690;BME280;8458;52.220;9.884;2022-07-04T07:18:00;101138.97;;;19.13;71.18
16690;BME280;8458;52.220;9.884;2022-07-04T07:20:26;101148.13;;;19.33;71.04
16690;BME280;8458;52.220;9.884;2022-07-04T07:22:53;101136.66;;;19.43;69.90
16690;BME280;8458;52.220;9.884;2022-07-04T07:25:20;101143.22;;;19.39;70.60
16690;BME280;8458;52.220;9.884;2022-07-04T07:27:46;101149.06;;;19.28;69.88
16690;BME280;8458;52.220;9.884;2022-07-04T07:30:13;101145.94;;;19.16;69.55
16690;BME280;8458;52.220;9.884;2022-07-04T07:32:41;101149.66;;;18.97;71.10
16690;BME280;8458;52.220;9.884;2022-07-04T07:35:08;101152.91;;;19.19;71.67
16690;BME280;8458;52.220;9.884;2022-07-04T07:37:34;101151.03;;;19.28;70.53
16690;BME280;8458;52.220;9.884;2022-07-04T07:40:01;101157.41;;;19.20;70.10
16690;BME280;8458;52.220;9.884;2022-07-04T07:42:28;101149.28;;;19.04;69.62
16690;BME280;8458;52.220;9.884;2022-07-04T07:44:55;101153.97;;;19.09;69.09
16690;BME280;8458;52.220;9.884;2022-07-04T07:47:22;101149.47;;;19.22;68.70
16690;BME280;8458;52.220;9.884;2022-07-04T07:49:51;101144.47;;;19.46;68.90
16690;BME280;8458;52.220;9.884;2022-07-04T07:52:17;101140.47;;;19.75;68.69
16690;BME280;8458;52.220;9.884;2022-07-04T07:54:44;101144.38;;;20.02;68.61
16690;BME280;8458;52.220;9.884;2022-07-04T07:57:10;101148.09;;;20.34;67.19
16690;BME280;8458;52.220;9.884;2022-07-04T07:59:36;101153.97;;;20.46;64.50
16690;BME280;8458;52.220;9.884;2022-07-04T08:02:03;101150.91;;;20.56;64.11
16690;BME280;8458;52.220;9.884;2022-07-04T08:04:30;101153.72;;;20.56;63.41
16690;BME280;8458;52.220;9.884;2022-07-04T08:07:08;101144.53;;;20.65;63.51
16690;BME280;8458;52.220;9.884;2022-07-04T08:09:36;101136.94;;;20.74;61.83
16690;BME280;8458;52.220;9.884;2022-07-04T08:12:04;101143.19;;;20.93;61.34
16690;BME280;8458;52.220;9.884;2022-07-04T08:14:32;101136.75;;;21.02;60.67
16690;BME280;8458;52.220;9.884;2022-07-04T08:17:00;101131.38;;;21.23;60.67
16690;BME280;8458;52.220;9.884;2022-07-04T08:19:26;101127.91;;;21.35;59.97
16690;BME280;8458;52.220;9.884;2022-07-04T08:21:53;101134.00;;;21.19;59.49
16690;BME280;8458;52.220;9.884;2022-07-04T08:24:21;101139.41;;;20.67;61.52
16690;BME280;8458;52.220;9.884;2022-07-04T08:26:48;101139.53;;;20.39;61.83
16690;BME280;8458;52.220;9.884;2022-07-04T08:29:15;101138.25;;;20.22;62.31
16690;BME280;8458;52.220;9.884;2022-07-04T08:31:41;101140.44;;;20.26;63.45
16690;BME280;8458;52.220;9.884;2022-07-04T08:34:08;101140.81;;;20.10;64.00
16690;BME280;8458;52.220;9.884;2022-07-04T08:36:34;101144.78;;;20.32;64.24
16690;BME280;8458;52.220;9.884;2022-07-04T08:39:01;101138.13;;;20.50;64.19
16690;BME280;8458;52.220;9.884;2022-07-04T08:41:35;101135.31;;;20.73;63.68
16690;BME280;8458;52.220;9.884;2022-07-04T08:44:03;101140.84;;;20.87;62.39
16690;BME280;8458;52.220;9.884;2022-07-04T08:46:30;101125.19;;;21.12;60.62
16690;BME280;8458;52.220;9.884;2022-07-04T08:48:58;101124.72;;;21.19;60.53
16690;BME280;8458;52.220;9.884;2022-07-04T08:51:32;101129.59;;;21.36;60.54
16690;BME280;8458;52.220;9.884;2022-07-04T08:54:05;101128.19;;;21.07;58.85
16690;BME280;8458;52.220;9.884;2022-07-04T08:56:54;101127.59;;;21.27;59.01
16690;BME280;8458;52.220;9.884;2022-07-04T08:59:39;101148.31;;;21.31;58.71
16690;BME280;8458;52.220;9.884;2022-07-04T09:02:11;101150.41;;;20.77;60.06
16690;BME280;8458;52.220;9.884;2022-07-04T09:04:40;101153.03;;;20.73;60.79
16690;BME280;8458;52.220;9.884;2022-07-04T09:07:10;101156.94;;;20.41;61.14
16690;BME280;8458;52.220;9.884;2022-07-04T09:09:37;101162.03;;;20.62;60.04
16690;BME280;8458;52.220;9.884;2022-07-04T09:12:07;101145.78;;;20.81;58.35
16690;BME280;8458;52.220;9.884;2022-07-04T09:14:33;101148.75;;;21.16;57.36
16690;BME280;8458;52.220;9.884;2022-07-04T09:17:00;101138.22;;;21.30;53.28
16690;BME280;8458;52.220;9.884;2022-07-04T09:19:27;101140.47;;;21.60;54.45
16690;BME280;8458;52.220;9.884;2022-07-04T09:21:53;101140.66;;;21.81;52.38
16690;BME280;8458;52.220;9.884;2022-07-04T09:24:40;101138.84;;;22.02;53.75
16690;BME280;8458;52.220;9.884;2022-07-04T09:27:10;101124.72;;;22.02;52.04
16690;BME280;8458;52.220;9.884;2022-07-04T09:29:51;101152.41;;;21.57;53.24
16690;BME280;8458;52.220;9.884;2022-07-04T09:32:24;101152.97;;;21.36;51.64
16690;BME280;8458;52.220;9.884;2022-07-04T09:34:54;101147.16;;;21.33;50.96
16690;BME280;8458;52.220;9.884;2022-07-04T09:37:20;101152.44;;;21.25;51.21
16690;BME280;8458;52.220;9.884;2022-07-04T09:39:47;101150.34;;;21.48;51.23
16690;BME280;8458;52.220;9.884;2022-07-04T09:42:19;101140.66;;;21.81;50.61
16690;BME280;8458;52.220;9.884;2022-07-04T09:44:46;101132.03;;;22.03;47.92
16690;BME280;8458;52.220;9.884;2022-07-04T09:47:22;101132.38;;;22.11;47.70
16690;BME280;8458;52.220;9.884;2022-07-04T09:49:58;101131.88;;;22.35;49.13
16690;BME280;8458;52.220;9.884;2022-07-04T09:52:24;101131.34;;;22.59;46.80
16690;BME280;8458;52.220;9.884;2022-07-04T09:54:56;101123.81;;;22.72;46.72
16690;BME280;8458;52.220;9.884;2022-07-04T09:57:25;101140.34;;;22.44;46.25
16690;BME280;8458;52.220;9.884;2022-07-04T09:59:51;101127.66;;;22.59;46.09
16690;BME280;8458;52.220;9.884;2022-07-04T10:02:19;101133.50;;;22.62;47.10
16690;BME280;8458;52.220;9.884;2022-07-04T10:04:47;101131.63;;;22.84;46.96
16690;BME280;8458;52.220;9.884;2022-07-04T10:07:35;101127.34;;;23.07;46.15
16690;BME280;8458;52.220;9.884;2022-07-04T10:10:20;101115.13;;;23.33;46.25
16690;BME280;8458;52.220;9.884;2022-07-04T10:12:49;101119.41;;;23.01;45.66
16690;BME280;8458;52.220;9.884;2022-07-04T10:15:16;101121.09;;;22.93;44.66
16690;BME280;8458;52.220;9.884;2022-07-04T10:17:43;101116.16;;;22.81;44.15
16690;BME280;8458;52.220;9.884;2022-07-04T10:20:11;101115.78;;;22.91;44.55
16690;BME280;8458;52.220;9.884;2022-07-04T10:22:38;101116.16;;;22.81;44.25
16690;BME280;8458;52.220;9.884;2022-07-04T10:25:06;101119.19;;;22.59;42.93
16690;BME280;8458;52.220;9.884;2022-07-04T10:27:32;101118.94;;;22.34;43.94
16690;BME280;8458;52.220;9.884;2022-07-04T10:30:05;101116.00;;;22.78;43.50
16690;BME280;8458;52.220;9.884;2022-07-04T10:32:33;101108.91;;;23.01;42.92
16690;BME280;8458;52.220;9.884;2022-07-04T10:35:00;101113.03;;;23.13;43.72
16690;BME280;8458;52.220;9.884;2022-07-04T10:37:57;101096.88;;;23.22;43.51
16690;BME280;8458;52.220;9.884;2022-07-04T10:40:42;101100.38;;;23.49;43.87
16690;BME280;8458;52.220;9.884;2022-07-04T10:43:36;101101.34;;;23.74;43.00
16690;BME280;8458;52.220;9.884;2022-07-04T10:46:28;101111.53;;;23.15;43.14
16690;BME280;8458;52.220;9.884;2022-07-04T10:48:56;101103.00;;;23.54;44.05
16690;BME280;8458;52.220;9.884;2022-07-04T10:51:41;101103.44;;;23.86;43.03
16690;BME280;8458;52.220;9.884;2022-07-04T10:54:11;101097.50;;;24.21;42.01
16690;BME280;8458;52.220;9.884;2022-07-04T10:56:40;101092.50;;;24.39;42.26
16690;BME280;8458;52.220;9.884;2022-07-04T10:59:09;101093.41;;;24.64;42.85
16690;BME280;8458;52.220;9.884;2022-07-04T11:01:37;101083.06;;;24.47;41.53
16690;BME280;8458;52.220;9.884;2022-07-04T11:04:04;101087.75;;;24.88;41.56
16690;BME280;8458;52.220;9.884;2022-07-04T11:06:49;101097.19;;;24.34;40.96
16690;BME280;8458;52.220;9.884;2022-07-04T11:09:18;101108.06;;;23.69;41.77
16690;BME280;8458;52.220;9.884;2022-07-04T11:11:50;101103.16;;;23.78;42.21
16690;BME280;8458;52.220;9.884;2022-07-04T11:14:39;101093.00;;;24.20;43.00
16690;BME280;8458;52.220;9.884;2022-07-04T11:17:08;101089.28;;;24.07;40.90
16690;BME280;8458;52.220;9.884;2022-07-04T11:19:36;101082.66;;;24.36;41.73
16690;BME280;8458;52.220;9.884;2022-07-04T11:22:04;101082.53;;;24.66;40.77
16690;BME280;8458;52.220;9.884;2022-07-04T11:24:32;101085.13;;;24.59;40.81
16690;BME280;8458;52.220;9.884;2022-07-04T11:26:59;101081.97;;;24.39;42.12
16690;BME280;8458;52.220;9.884;2022-07-04T11:29:27;101077.72;;;24.79;42.03
16690;BME280;8458;52.220;9.884;2022-07-04T11:31:54;101080.19;;;25.17;41.89
16690;BME280;8458;52.220;9.884;2022-07-04T11:34:22;101070.63;;;25.10;39.92
16690;BME280;8458;52.220;9.884;2022-07-04T11:36:50;101068.13;;;25.45;40.02
16690;BME280;8458;52.220;9.884;2022-07-04T11:39:18;101065.47;;;25.77;40.76
16690;BME280;8458;52.220;9.884;2022-07-04T11:41:47;101057.84;;;25.93;40.60
16690;BME280;8458;52.220;9.884;2022-07-04T11:44:33;101063.75;;;26.01;39.72
16690;BME280;8458;52.220;9.884;2022-07-04T11:47:19;101063.13;;;26.36;38.65
16690;BME280;8458;52.220;9.884;2022-07-04T11:49:49;101066.78;;;26.52;37.74
16690;BME280;8458;52.220;9.884;2022-07-04T11:52:18;101070.38;;;26.49;37.73
16690;BME280;8458;52.220;9.884;2022-07-04T11:54:46;101062.19;;;26.47;38.35
16690;BME280;8458;52.220;9.884;2022-07-04T11:57:16;101060.75;;;26.54;37.80
16690;BME280;8458;52.220;9.884;2022-07-04T11:59:51;101060.16;;;26.76;37.84
16690;BME280;8458;52.220;9.884;2022-07-04T12:02:18;101058.63;;;26.51;37.45
16690;BME280;8458;52.220;9.884;2022-07-04T12:04:45;101062.59;;;25.89;37.83
16690;BME280;8458;52.220;9.884;2022-07-04T12:07:14;101055.66;;;26.15;38.77
16690;BME280;8458;52.220;9.884;2022-07-04T12:09:42;101062.94;;;26.00;38.66
16690;BME280;8458;52.220;9.884;2022-07-04T12:12:10;101068.38;;;25.40;38.48
16690;BME280;8458;52.220;9.884;2022-07-04T12:14:37;101075.63;;;25.90;39.17
16690;BME280;8458;52.220;9.884;2022-07-04T12:17:28;101069.97;;;26.19;38.10
16690;BME280;8458;52.220;9.884;2022-07-04T12:19:57;101067.06;;;26.03;38.43
16690;BME280;8458;52.220;9.884;2022-07-04T12:22:33;101061.56;;;25.82;38.18
16690;BME280;8458;52.220;9.884;2022-07-04T12:25:01;101063.97;;;25.67;37.86
16690;BME280;8458;52.220;9.884;2022-07-04T12:27:29;101061.34;;;25.62;39.04
16690;BME280;8458;52.220;9.884;2022-07-04T12:29:57;101057.09;;;25.68;39.11
16690;BME280;8458;52.220;9.884;2022-07-04T12:32:43;101058.69;;;25.04;39.19
16690;BME280;8458;52.220;9.884;2022-07-04T12:35:34;101051.84;;;25.05;39.36
16690;BME280;8458;52.220;9.884;2022-07-04T12:38:06;101058.00;;;24.82;39.58
16690;BME280;8458;52.220;9.884;2022-07-04T12:40:34;101058.44;;;24.84;40.44
16690;BME280;8458;52.220;9.884;2022-07-04T12:43:01;101061.53;;;25.04;40.08
16690;BME280;8458;52.220;9.884;2022-07-04T12:45:43;101053.25;;;24.74;40.41
16690;BME280;8458;52.220;9.884;2022-07-04T12:48:17;101056.81;;;24.83;39.61
16690;BME280;8458;52.220;9.884;2022-07-04T12:50:45;101065.09;;;24.88;39.91
16690;BME280;8458;52.220;9.884;2022-07-04T12:53:13;101059.66;;;24.96;39.59
16690;BME280;8458;52.220;9.884;2022-07-04T12:55:41;101050.53;;;24.90;40.01
16690;BME280;8458;52.220;9.884;2022-07-04T12:58:08;101044.97;;;25.06;40.41
16690;BME280;8458;52.220;9.884;2022-07-04T13:00:34;101040.97;;;25.07;39.75
16690;BME280;8458;52.220;9.884;2022-07-04T13:03:01;101044.53;;;25.29;41.30
16690;BME280;8458;52.220;9.884;2022-07-04T13:05:28;101042.72;;;25.49;40.05
16690;BME280;8458;52.220;9.884;2022-07-04T13:07:54;101046.66;;;25.32;41.07